Forside
METAR-TAF:

METAR-TAF

Lufthavne :

Kisarazu, Japan

Breddekreds: 35-24N, længdekreds: 139-55E, højde: 3 m

Aktuelle vejr

Denne rapport blev lavet for 32 minutter siden, kl. 07:14 UTC
Vind 17 kt fra nordnordøst med vindstød på up til 27 kt
Temperatur 9°C
Fugtighed 37%
Tryk 1017 hPa
Sigt 10 km eller mere
Nogle få skyer i en højde af 3000 ft

METAR: RJTK 270714Z 03017G27KT 9999 FEW030 09/M05 Q1017 RMK 1CU030 A3003

Tid: 16:46 (07:46 UTC)


TAF: fraværende

Vejrobservationer og prognoser fra mere end 4000 lufthavne (METAR og TAF).

De gule og røde prikker repræsenterer de meteorologiske stationer.

Flyt musen over at se navnet på stationen.

Så klik over at se vejr observationer og prognoser.

At skifte det kort: Klik på de grønne knapper med et sort kors for at zoome ind; på den grønne knap med en bindestreg for at zoome ud; eller på de grønne pile for tilstødende kort.


METAR-TAF: